sensor_id;sensor_type;location;lat;lon;timestamp;temperature;humidity
46331;DHT22;32049;52.346;4.870;2022-08-14T17:18:36;29.90;84.30
46331;DHT22;32049;52.346;4.870;2022-08-14T17:21:26;29.90;85.50
46331;DHT22;32049;52.346;4.870;2022-08-14T17:24:18;29.80;85.10
46331;DHT22;32049;52.346;4.870;2022-08-14T17:27:26;29.60;85.10
46331;DHT22;32049;52.346;4.870;2022-08-14T17:30:15;29.60;85.00
46331;DHT22;32049;52.346;4.870;2022-08-14T17:33:29;29.60;85.90
46331;DHT22;32049;52.346;4.870;2022-08-14T17:36:29;29.40;87.00
46331;DHT22;32049;52.346;4.870;2022-08-14T17:39:17;29.30;87.80
46331;DHT22;32049;52.346;4.870;2022-08-14T17:42:06;29.40;87.90
46331;DHT22;32049;52.346;4.870;2022-08-14T17:45:16;29.30;88.30
46331;DHT22;32049;52.346;4.870;2022-08-14T17:51:09;29.40;88.80
46331;DHT22;32049;52.346;4.870;2022-08-14T17:53:58;29.20;88.80
46331;DHT22;32049;52.346;4.870;2022-08-14T17:56:51;29.20;89.20
46331;DHT22;32049;52.346;4.870;2022-08-14T17:59:45;29.20;90.10
46331;DHT22;32049;52.346;4.870;2022-08-14T18:02:37;29.20;89.30
46331;DHT22;32049;52.346;4.870;2022-08-14T18:05:25;29.00;89.20
46331;DHT22;32049;52.346;4.870;2022-08-14T18:08:34;29.00;89.50
46331;DHT22;32049;52.346;4.870;2022-08-14T18:11:27;28.90;89.80
46331;DHT22;32049;52.346;4.870;2022-08-14T18:14:32;28.90;90.50
46331;DHT22;32049;52.346;4.870;2022-08-14T18:17:36;28.80;90.50
46331;DHT22;32049;52.346;4.870;2022-08-14T18:20:27;28.80;91.00
46331;DHT22;32049;52.346;4.870;2022-08-14T18:23:35;28.80;90.80
46331;DHT22;32049;52.346;4.870;2022-08-14T18:26:29;28.70;90.90
46331;DHT22;32049;52.346;4.870;2022-08-14T18:29:26;28.60;91.20
46331;DHT22;32049;52.346;4.870;2022-08-14T18:39:32;28.40;91.20
46331;DHT22;32049;52.346;4.870;2022-08-14T18:42:55;28.50;91.40
46331;DHT22;32049;52.346;4.870;2022-08-14T18:45:59;28.30;91.80
46331;DHT22;32049;52.346;4.870;2022-08-14T18:49:13;28.30;91.60
46331;DHT22;32049;52.346;4.870;2022-08-14T18:52:13;28.20;91.90
46331;DHT22;32049;52.346;4.870;2022-08-14T19:01:23;28.10;92.00
46331;DHT22;32049;52.346;4.870;2022-08-14T19:04:35;27.90;92.20
46331;DHT22;32049;52.346;4.870;2022-08-14T19:07:24;28.00;92.40
46331;DHT22;32049;52.346;4.870;2022-08-14T19:13:44;27.90;92.40
46331;DHT22;32049;52.346;4.870;2022-08-14T19:16:39;27.80;92.30
46331;DHT22;32049;52.346;4.870;2022-08-14T19:26:01;27.90;92.20
46331;DHT22;32049;52.346;4.870;2022-08-14T19:29:33;27.80;92.20
46331;DHT22;32049;52.346;4.870;2022-08-14T19:41:37;27.60;93.30
46331;DHT22;32049;52.346;4.870;2022-08-14T19:51:25;27.50;93.80
46331;DHT22;32049;52.346;4.870;2022-08-14T20:03:46;27.40;94.30
46331;DHT22;32049;52.346;4.870;2022-08-14T20:06:48;27.30;94.60
46331;DHT22;32049;52.346;4.870;2022-08-14T20:09:40;27.30;95.00
46331;DHT22;32049;52.346;4.870;2022-08-14T20:13:04;27.30;95.00
46331;DHT22;32049;52.346;4.870;2022-08-14T20:15:52;27.30;94.70
46331;DHT22;32049;52.346;4.870;2022-08-14T20:18:39;27.30;95.40
46331;DHT22;32049;52.346;4.870;2022-08-14T20:24:53;27.20;95.50
46331;DHT22;32049;52.346;4.870;2022-08-14T20:27:43;27.10;95.40
46331;DHT22;32049;52.346;4.870;2022-08-14T20:30:31;27.10;95.50
46331;DHT22;32049;52.346;4.870;2022-08-14T20:33:22;27.20;95.40
46331;DHT22;32049;52.346;4.870;2022-08-14T20:36:10;27.00;95.80
46331;DHT22;32049;52.346;4.870;2022-08-14T20:39:12;27.00;96.00
46331;DHT22;32049;52.346;4.870;2022-08-14T20:42:10;26.90;96.00
46331;DHT22;32049;52.346;4.870;2022-08-14T20:45:16;26.80;96.50
46331;DHT22;32049;52.346;4.870;2022-08-14T20:48:11;26.90;96.50
46331;DHT22;32049;52.346;4.870;2022-08-14T21:07:47;26.70;98.10
46331;DHT22;32049;52.346;4.870;2022-08-14T21:10:41;26.70;98.50
46331;DHT22;32049;52.346;4.870;2022-08-14T21:13:34;26.70;98.80
46331;DHT22;32049;52.346;4.870;2022-08-14T21:20:42;26.60;99.70
46331;DHT22;32049;52.346;4.870;2022-08-14T21:23:34;26.60;99.90
46331;DHT22;32049;52.346;4.870;2022-08-14T21:26:41;26.60;99.90
46331;DHT22;32049;52.346;4.870;2022-08-14T21:29:50;26.50;99.90
46331;DHT22;32049;52.346;4.870;2022-08-14T21:32:42;26.40;99.90
46331;DHT22;32049;52.346;4.870;2022-08-14T21:35:39;26.40;99.90
46331;DHT22;32049;52.346;4.870;2022-08-14T21:38:31;26.40;99.90
46331;DHT22;32049;52.346;4.870;2022-08-14T21:41:21;26.30;99.90
46331;DHT22;32049;52.346;4.870;2022-08-14T21:44:30;26.30;99.90
46331;DHT22;32049;52.346;4.870;2022-08-14T21:47:30;26.20;99.90
46331;DHT22;32049;52.346;4.870;2022-08-14T21:50:17;26.20;99.90
46331;DHT22;32049;52.346;4.870;2022-08-14T21:53:27;26.10;99.90
46331;DHT22;32049;52.346;4.870;2022-08-14T21:56:17;26.10;99.90
46331;DHT22;32049;52.346;4.870;2022-08-14T21:59:11;26.10;99.90
46331;DHT22;32049;52.346;4.870;2022-08-14T22:02:05;26.10;99.90
46331;DHT22;32049;52.346;4.870;2022-08-14T22:04:53;26.00;99.90
46331;DHT22;32049;52.346;4.870;2022-08-14T22:07:42;26.00;99.90
46331;DHT22;32049;52.346;4.870;2022-08-14T22:10:32;26.00;99.90
46331;DHT22;32049;52.346;4.870;2022-08-14T22:13:22;25.90;99.90
46331;DHT22;32049;52.346;4.870;2022-08-14T22:16:12;26.00;99.90
46331;DHT22;32049;52.346;4.870;2022-08-14T22:19:20;25.90;99.90
46331;DHT22;32049;52.346;4.870;2022-08-14T22:22:14;25.80;99.90
46331;DHT22;32049;52.346;4.870;2022-08-14T22:25:04;26.00;99.90
46331;DHT22;32049;52.346;4.870;2022-08-14T22:27:52;25.90;99.90
46331;DHT22;32049;52.346;4.870;2022-08-14T22:30:43;25.90;99.90
46331;DHT22;32049;52.346;4.870;2022-08-14T22:33:32;25.90;99.90
46331;DHT22;32049;52.346;4.870;2022-08-14T22:36:21;25.90;99.90
46331;DHT22;32049;52.346;4.870;2022-08-14T22:39:33;25.90;99.90
46331;DHT22;32049;52.346;4.870;2022-08-14T22:42:40;25.80;99.90
46331;DHT22;32049;52.346;4.870;2022-08-14T22:45:46;25.90;99.90
46331;DHT22;32049;52.346;4.870;2022-08-14T22:48:43;25.80;99.90
46331;DHT22;32049;52.346;4.870;2022-08-14T22:51:34;25.70;99.90
46331;DHT22;32049;52.346;4.870;2022-08-14T22:54:28;25.60;99.90
46331;DHT22;32049;52.346;4.870;2022-08-14T22:57:37;25.70;99.90
46331;DHT22;32049;52.346;4.870;2022-08-14T23:00:30;25.70;99.90
46331;DHT22;32049;52.346;4.870;2022-08-14T23:03:17;25.50;99.90
46331;DHT22;32049;52.346;4.870;2022-08-14T23:06:05;25.60;99.90
46331;DHT22;32049;52.346;4.870;2022-08-14T23:09:16;25.60;99.90
46331;DHT22;32049;52.346;4.870;2022-08-14T23:12:26;25.50;99.90
46331;DHT22;32049;52.346;4.870;2022-08-14T23:15:18;25.50;99.90
46331;DHT22;32049;52.346;4.870;2022-08-14T23:18:08;25.50;99.90
46331;DHT22;32049;52.346;4.870;2022-08-14T23:24:32;25.40;99.90
46331;DHT22;32049;52.346;4.870;2022-08-14T23:27:27;25.50;99.90
46331;DHT22;32049;52.346;4.870;2022-08-14T23:30:35;25.50;99.90
46331;DHT22;32049;52.346;4.870;2022-08-14T23:33:25;25.40;99.90
46331;DHT22;32049;52.346;4.870;2022-08-14T23:36:14;25.40;99.90
46331;DHT22;32049;52.346;4.870;2022-08-14T23:39:18;25.40;99.90
46331;DHT22;32049;52.346;4.870;2022-08-14T23:42:08;25.30;99.90
46331;DHT22;32049;52.346;4.870;2022-08-14T23:44:57;25.30;99.90
46331;DHT22;32049;52.346;4.870;2022-08-14T23:47:47;25.40;99.90
46331;DHT22;32049;52.346;4.870;2022-08-14T23:50:40;25.30;99.90
46331;DHT22;32049;52.346;4.870;2022-08-14T23:53:33;25.30;99.90
46331;DHT22;32049;52.346;4.870;2022-08-14T23:56:35;25.30;99.90
46331;DHT22;32049;52.346;4.870;2022-08-14T23:59:22;25.30;99.90
